Time;durP1;ratioP1;P1;durP2;ratioP2;P2;SDS_P1;SDS_P2;PMS_P1;PMS_P2;Temp;Humidity;BMP_temperature;BMP_pressure;BME280_temperature;BME280_humidity;BME280_pressure;Samples;Min_cycle;Max_cycle;Signal;HPM_P1;HPM_P2
2022/05/26 00:02:44;;;;;;;51.97;34.30;;;;;;;10.20;94.54;98965.22;2130715;84;20999;-81
2022/05/26 00:05:44;;;;;;;49.47;32.27;;;;;;;10.17;94.35;98966.44;2129829;84;20960;-82
2022/05/26 00:08:44;;;;;;;51.33;32.80;;;;;;;10.18;94.58;98962.98;2130158;84;21044;-81
2022/05/26 00:11:45;;;;;;;48.03;32.77;;;;;;;10.18;94.48;98961.67;2129815;84;21281;-83
2022/05/26 00:14:45;;;;;;;51.03;32.37;;;;;;;10.18;94.48;98960.80;2129784;84;20963;-82
2022/05/26 00:17:45;;;;;;;48.13;33.17;;;;;;;10.17;94.38;98960.34;2130259;84;20916;-79
2022/05/26 00:20:46;;;;;;;54.87;35.87;;;;;;;10.13;95.17;98962.03;2130485;84;20999;-82
2022/05/26 00:23:46;;;;;;;52.70;34.37;;;;;;;10.14;95.26;98964.21;2129352;84;20995;-81
2022/05/26 00:26:47;;;;;;;59.77;36.27;;;;;;;10.14;95.33;98966.39;2129604;84;21007;-83
2022/05/26 00:29:47;;;;;;;53.90;36.43;;;;;;;10.13;95.29;98962.45;2129556;84;21438;-81
2022/05/26 00:32:48;;;;;;;59.10;36.50;;;;;;;10.13;95.53;98962.45;2129400;84;20971;-82
2022/05/26 00:35:48;;;;;;;60.77;36.13;;;;;;;10.10;95.38;98963.29;2129712;84;20952;-83
2022/05/26 00:38:48;;;;;;;57.87;35.63;;;;;;;10.09;95.23;98956.31;2129600;84;21338;-81
2022/05/26 00:41:49;;;;;;;60.03;37.90;;;;;;;10.08;95.33;98953.26;2129759;84;20952;-82
2022/05/26 00:44:50;;;;;;;58.70;37.27;;;;;;;10.06;95.26;98953.66;2170629;81;21001;-82
2022/05/26 00:47:49;;;;;;;62.90;38.67;;;;;;;10.05;95.27;98955.82;2169603;82;21451;-82
2022/05/26 00:50:50;;;;;;;57.03;36.17;;;;;;;10.05;95.32;98951.91;2170887;82;20969;-81
2022/05/26 00:53:51;;;;;;;61.47;38.20;;;;;;;10.03;95.46;98957.52;2170764;82;21028;-82
2022/05/26 00:56:51;;;;;;;63.47;37.53;;;;;;;10.04;95.46;98946.67;2170024;82;21281;-82
2022/05/26 00:59:51;;;;;;;63.60;36.13;;;;;;;10.02;95.45;98944.03;2170537;82;20985;-83
2022/05/26 01:02:51;;;;;;;61.13;37.87;;;;;;;10.02;95.23;98945.34;2169886;82;20965;-82
2022/05/26 01:05:52;;;;;;;63.70;39.20;;;;;;;10.00;95.08;98947.05;2170558;82;21016;-83
2022/05/26 01:08:52;;;;;;;71.53;38.10;;;;;;;9.99;95.14;98945.30;2169374;82;20984;-82
2022/05/26 01:11:53;;;;;;;65.13;38.53;;;;;;;9.97;95.32;98949.61;2169450;82;20994;-80
2022/05/26 01:14:53;;;;;;;59.53;37.13;;;;;;;10.00;95.49;98956.60;2170516;82;21008;-81
2022/05/26 01:17:53;;;;;;;63.83;37.50;;;;;;;9.99;95.45;98953.54;2169827;82;20922;-82
2022/05/26 01:20:54;;;;;;;58.23;36.23;;;;;;;10.00;95.35;98959.21;2169558;82;21345;-82
2022/05/26 01:23:54;;;;;;;60.17;36.57;;;;;;;9.99;95.36;98955.72;2169493;82;20945;-82
2022/05/26 01:26:55;;;;;;;59.07;36.97;;;;;;;9.99;95.45;98957.03;2171158;82;20988;-82
2022/05/26 01:29:55;;;;;;;56.27;36.53;;;;;;;9.98;95.33;98959.19;2170254;82;21432;-81
2022/05/26 01:32:55;;;;;;;57.50;37.27;;;;;;;9.99;95.45;98964.84;2170550;82;20961;-83
2022/05/26 01:35:56;;;;;;;60.00;35.37;;;;;;;9.97;95.22;98958.73;2171171;82;20921;-82
2022/05/26 01:38:56;;;;;;;60.97;37.63;;;;;;;9.97;95.14;98953.52;2171075;82;21001;-83
2022/05/26 01:41:56;;;;;;;56.03;36.20;;;;;;;9.95;95.19;98952.62;2172545;82;20929;-83
2022/05/26 01:44:57;;;;;;;54.73;35.80;;;;;;;9.95;94.89;98949.13;2171811;82;21039;-87
2022/05/26 01:47:57;;;;;;;53.17;34.57;;;;;;;9.94;94.99;98946.95;2171846;81;21032;-83
2022/05/26 01:50:58;;;;;;;56.43;37.00;;;;;;;9.92;94.76;98947.35;2171901;82;20972;-83
2022/05/26 01:53:58;;;;;;;50.43;34.97;;;;;;;9.86;94.42;98944.22;2171603;81;20901;-83
2022/05/26 01:56:59;;;;;;;48.67;34.20;;;;;;;9.87;94.70;98945.97;2171931;81;20973;-85
2022/05/26 01:59:59;;;;;;;54.23;35.03;;;;;;;9.85;94.71;98942.89;2172644;81;21357;-86
2022/05/26 02:03:00;;;;;;;54.63;34.70;;;;;;;9.83;94.68;98945.91;2172529;82;21000;-83
2022/05/26 02:06:00;;;;;;;54.70;34.10;;;;;;;9.80;94.89;98948.03;2171366;81;20965;-84
2022/05/26 02:09:00;;;;;;;49.47;35.17;;;;;;;9.79;94.93;98945.41;2171436;82;20968;-85
2022/05/26 02:12:01;;;;;;;56.30;35.50;;;;;;;9.78;95.05;98942.34;2171224;82;21033;-82
2022/05/26 02:15:01;;;;;;;52.70;34.40;;;;;;;9.77;95.02;98941.89;2170807;82;21040;-83
2022/05/26 02:18:01;;;;;;;59.13;37.00;;;;;;;9.76;94.92;98941.44;2170849;82;21359;-83
2022/05/26 02:21:02;;;;;;;55.90;35.10;;;;;;;9.75;95.00;98937.95;2170796;82;20953;-83
2022/05/26 02:24:02;;;;;;;50.23;34.17;;;;;;;9.77;95.22;98951.02;2171048;82;20933;-83
2022/05/26 02:27:03;;;;;;;50.27;33.80;;;;;;;9.79;95.23;98953.22;2171293;82;20998;-84
2022/05/26 02:30:03;;;;;;;55.70;35.10;;;;;;;9.80;95.19;98957.58;2171636;82;20921;-84
2022/05/26 02:33:03;;;;;;;50.00;33.53;;;;;;;9.82;95.29;98959.36;2171174;82;20913;-84
2022/05/26 02:36:04;;;;;;;68.13;38.03;;;;;;;9.83;94.93;98960.24;2172357;82;20948;-82
2022/05/26 02:39:04;;;;;;;46.47;33.70;;;;;;;9.83;94.93;98961.55;2171286;82;21089;-84
2022/05/26 02:42:05;;;;;;;44.37;31.87;;;;;;;9.86;94.98;98965.50;2172058;82;21373;-81
2022/05/26 02:45:05;;;;;;;47.47;33.83;;;;;;;9.86;94.94;98964.20;2170983;81;20957;-82
2022/05/26 02:48:06;;;;;;;44.23;32.40;;;;;;;9.88;94.95;98967.71;2170302;82;21004;-84
2022/05/26 02:51:06;;;;;;;46.73;33.53;;;;;;;9.90;94.77;98969.92;2171949;82;20995;-84
2022/05/26 02:54:07;;;;;;;44.60;32.27;;;;;;;9.92;94.75;98972.13;2172777;82;20989;-83
2022/05/26 02:57:07;;;;;;;41.50;30.90;;;;;;;9.92;94.56;98966.91;2171411;82;20981;-82
2022/05/26 03:00:07;;;;;;;44.70;32.80;;;;;;;9.94;94.63;98974.33;2172295;82;20909;-85
2022/05/26 03:03:08;;;;;;;42.67;31.33;;;;;;;9.94;94.54;98968.23;2169590;82;20945;-84
2022/05/26 03:06:08;;;;;;;44.77;31.90;;;;;;;9.98;94.51;98972.22;2171433;82;21009;-83
2022/05/26 03:09:09;;;;;;;43.80;30.57;;;;;;;10.03;94.52;98966.66;2170644;82;21350;-83
2022/05/26 03:12:09;;;;;;;40.80;30.73;;;;;;;10.06;94.37;98970.61;2172401;82;20937;-84
2022/05/26 03:15:09;;;;;;;42.00;30.30;;;;;;;10.09;94.24;98968.05;2171335;82;20977;-84
2022/05/26 03:18:10;;;;;;;40.37;30.57;;;;;;;10.13;94.14;98963.77;2171729;82;21388;-84
2022/05/26 03:21:10;;;;;;;42.40;32.00;;;;;;;10.17;94.10;98970.35;2171131;82;20949;-84
2022/05/26 03:24:11;;;;;;;34.67;28.90;;;;;;;10.24;93.99;98983.52;2171006;82;21033;-85
2022/05/26 03:27:11;;;;;;;40.60;31.03;;;;;;;10.30;93.90;98983.19;2171478;82;20985;-83
2022/05/26 03:30:12;;;;;;;41.13;30.50;;;;;;;10.34;93.68;98981.50;2158708;82;22063;-83
2022/05/26 03:33:13;;;;;;;41.60;30.37;;;;;;;10.41;93.69;98978.16;2171662;82;20933;-83
2022/05/26 03:42:51;;;;;;;37.28;29.30;;;;;;;10.63;93.33;98984.56;2171702;81;20944;-83
2022/05/26 03:45:51;;;;;;;38.98;28.75;;;;;;;10.77;93.08;98988.23;2169431;82;20981;-84
2022/05/26 03:48:51;;;;;;;34.78;27.90;;;;;;;10.90;92.81;98985.36;2169597;82;21396;-82
2022/05/26 03:51:52;;;;;;;34.97;28.57;;;;;;;11.01;92.55;98968.08;2169895;82;21033;-84
2022/05/26 03:54:52;;;;;;;39.25;28.90;;;;;;;11.09;92.45;98971.66;2169757;82;21043;-85
2022/05/26 03:57:53;;;;;;;34.13;27.13;;;;;;;11.12;92.19;98979.53;2170392;82;21332;-84
2022/05/26 04:00:53;;;;;;;42.08;30.02;;;;;;;11.20;92.05;98984.84;2170057;82;20993;-84
2022/05/26 04:03:55;;;;;;;34.90;26.65;;;;;;;11.27;92.14;98982.75;2169820;82;20968;-82
2022/05/26 04:06:54;;;;;;;39.40;28.27;;;;;;;11.38;91.94;98970.28;2171157;82;21368;-83
2022/05/26 04:09:54;;;;;;;36.10;27.62;;;;;;;11.57;92.07;98974.39;2169965;82;20996;-84
2022/05/26 04:12:55;;;;;;;36.35;27.15;;;;;;;11.78;92.13;98973.31;2168878;82;21004;-85
2022/05/26 04:15:55;;;;;;;32.35;26.33;;;;;;;11.96;91.26;98973.91;2170239;82;20917;-84
2022/05/26 04:18:55;;;;;;;45.03;27.15;;;;;;;12.10;91.15;98975.77;2170315;82;20978;-83
2022/05/26 04:25:15;;;;;;;35.90;24.50;;;;;;;12.57;90.41;98973.94;2170265;81;21046;-84
2022/05/26 04:28:15;;;;;;;33.70;25.12;;;;;;;12.78;89.36;98960.08;2169972;82;20959;-83
2022/05/26 04:31:15;;;;;;;23.95;20.25;;;;;;;13.04;89.67;98973.33;2168386;82;20909;-83
2022/05/26 04:34:16;;;;;;;32.13;22.50;;;;;;;13.30;87.45;98971.70;2168304;82;21342;-82
2022/05/26 04:37:16;;;;;;;20.43;17.92;;;;;;;13.58;87.72;98971.77;2168701;82;21082;-84
2022/05/26 04:40:17;;;;;;;27.10;20.85;;;;;;;13.81;85.99;98967.42;2168827;82;21027;-84
2022/05/26 04:43:17;;;;;;;25.72;20.75;;;;;;;14.01;85.96;98973.59;2170165;81;21361;-83
2022/05/26 04:46:18;;;;;;;19.80;17.65;;;;;;;14.23;85.55;98965.70;2169142;82;20981;-78
2022/05/26 04:49:18;;;;;;;23.18;18.37;;;;;;;14.49;84.63;98969.64;2170722;82;21008;-82
2022/05/26 04:52:18;;;;;;;20.05;17.98;;;;;;;14.69;83.52;98975.73;2168574;82;20993;-83
2022/05/26 04:55:19;;;;;;;23.38;16.37;;;;;;;14.96;82.79;98965.16;2169444;82;20981;-82
2022/05/26 04:58:19;;;;;;;24.23;17.45;;;;;;;15.26;81.20;98971.16;2168018;82;20974;-85
2022/05/26 05:01:19;;;;;;;15.35;13.10;;;;;;;15.54;81.18;98971.87;2169410;82;20992;-81
2022/05/26 05:04:20;;;;;;;16.62;14.68;;;;;;;15.67;77.19;98969.67;2167838;82;21376;-83
2022/05/26 05:07:20;;;;;;;28.17;17.92;;;;;;;15.62;78.78;98978.48;2168161;82;20929;-81
2022/05/26 05:10:21;;;;;;;20.23;17.57;;;;;;;15.53;79.25;98972.33;2167313;82;21328;-80
2022/05/26 05:13:21;;;;;;;17.02;14.03;;;;;;;15.42;78.94;98973.27;2169030;82;21016;-82
2022/05/26 05:16:21;;;;;;;21.40;15.55;;;;;;;15.35;77.21;98979.00;2167860;82;20934;-81
2022/05/26 05:19:22;;;;;;;23.18;16.85;;;;;;;15.39;78.88;98979.86;2169290;82;20945;-83
2022/05/26 05:22:22;;;;;;;18.80;16.25;;;;;;;15.38;77.90;98976.80;2168191;82;20997;-81
2022/05/26 05:25:23;;;;;;;18.98;14.83;;;;;;;15.38;78.20;98983.38;2168438;82;20984;-82
2022/05/26 05:28:23;;;;;;;29.60;15.70;;;;;;;15.40;76.27;98984.23;2170018;82;20968;-80
2022/05/26 05:31:25;;;;;;;18.90;16.27;;;;;;;15.34;77.38;98985.59;2169128;82;20972;-80
2022/05/26 05:34:24;;;;;;;23.42;16.42;;;;;;;15.54;77.80;98983.72;2170178;82;20987;-80
2022/05/26 05:37:24;;;;;;;17.65;15.75;;;;;;;15.60;77.71;98983.72;2168848;82;21044;-81
2022/05/26 05:40:24;;;;;;;15.10;13.05;;;;;;;15.63;77.13;98979.78;2168233;82;20960;-82
2022/05/26 05:43:25;;;;;;;16.75;14.70;;;;;;;15.62;75.50;98985.05;2168478;81;21017;-82
2022/05/26 05:46:25;;;;;;;19.50;14.85;;;;;;;15.48;76.13;98983.76;2170609;82;20945;-82
2022/05/26 05:49:26;;;;;;;18.90;14.70;;;;;;;15.38;76.38;98987.31;2169410;82;21047;-81
2022/05/26 05:52:26;;;;;;;19.67;15.98;;;;;;;15.25;76.68;98983.88;2170360;82;20970;-82
2022/05/26 05:55:28;;;;;;;26.20;18.48;;;;;;;15.18;76.33;98976.89;2159794;82;21007;-79
2022/05/26 05:58:29;;;;;;;27.20;18.70;;;;;;;15.39;77.45;98990.38;2170532;82;20939;-81
2022/05/26 06:01:29;;;;;;;19.15;16.02;;;;;;;15.75;76.93;98981.02;2171101;82;21759;-81
2022/05/26 06:04:30;;;;;;;17.02;14.87;;;;;;;16.04;75.24;98976.86;2170622;82;20952;-82
2022/05/26 06:07:30;;;;;;;19.55;12.73;;;;;;;16.28;75.34;98977.53;2170873;82;20984;-81
2022/05/26 06:10:30;;;;;;;18.10;14.80;;;;;;;16.50;71.89;98977.80;2170673;82;21615;-81
2022/05/26 06:13:31;;;;;;;20.20;13.90;;;;;;;16.72;72.84;98974.52;2171380;82;20901;-81
2022/05/26 06:16:32;;;;;;;13.43;11.38;;;;;;;16.89;73.59;98975.21;2170726;82;20953;-80
2022/05/26 06:19:32;;;;;;;22.37;12.75;;;;;;;17.18;73.23;98970.91;2170163;82;21747;-81
2022/05/26 06:22:32;;;;;;;22.10;12.75;;;;;;;17.31;71.30;98975.13;2170580;82;20937;-81
2022/05/26 06:25:32;;;;;;;11.15;9.85;;;;;;;17.36;71.15;98971.14;2171124;82;20992;-80
2022/05/26 06:38:29;;;;;;;9.00;8.15;;;;;;;18.29;69.44;98969.33;2171493;81;21232;-82
2022/05/26 06:44:48;;;;;;;11.60;8.20;;;;;;;19.04;67.74;98962.66;2174312;81;20960;-80
2022/05/26 06:47:48;;;;;;;14.58;8.18;;;;;;;19.21;65.92;98965.86;2172935;82;20997;-80
2022/05/26 06:50:50;;;;;;;11.70;8.60;;;;;;;19.36;64.82;98964.20;2169354;82;20944;-81
2022/05/26 06:53:50;;;;;;;11.90;9.13;;;;;;;19.23;61.49;98972.45;2168994;82;20980;-82
2022/05/26 06:56:50;;;;;;;16.75;9.20;;;;;;;19.02;63.48;98971.95;2168252;82;21008;-81
2022/05/26 06:59:51;;;;;;;12.53;8.23;;;;;;;19.02;64.22;98969.30;2168589;82;20980;-80
2022/05/26 07:02:54;;;;;;;13.73;7.83;;;;;;;19.18;63.02;98974.31;2169098;82;20941;-81
2022/05/26 07:05:54;;;;;;;9.40;6.97;;;;;;;19.26;62.03;98974.58;2169116;82;20952;-81
2022/05/26 07:08:55;;;;;;;6.58;5.95;;;;;;;19.36;61.54;98973.92;2169370;81;21026;-82
2022/05/26 07:11:55;;;;;;;7.25;6.22;;;;;;;19.65;60.89;98968.89;2168807;82;20937;-81
2022/05/26 07:14:56;;;;;;;8.40;6.42;;;;;;;19.79;59.56;98967.70;2168584;81;20992;-82
2022/05/26 07:17:56;;;;;;;19.20;7.00;;;;;;;19.92;58.82;98977.10;2168218;82;20985;-80
2022/05/26 07:20:56;;;;;;;10.65;7.05;;;;;;;19.97;60.70;98970.82;2168213;82;21453;-83
2022/05/26 07:23:57;;;;;;;14.33;7.53;;;;;;;20.35;61.27;98973.84;2168361;82;20976;-80
2022/05/26 07:26:58;;;;;;;12.23;6.05;;;;;;;20.52;59.97;98973.89;2168114;82;21055;-80
2022/05/26 07:29:58;;;;;;;8.48;5.83;;;;;;;20.72;57.96;98970.71;2168313;82;21406;-81
2022/05/26 07:32:59;;;;;;;10.70;6.53;;;;;;;20.65;57.51;98972.66;2167853;82;21277;-80
2022/05/26 07:35:58;;;;;;;6.50;5.80;;;;;;;20.63;57.09;98972.70;2167556;82;21326;-81
2022/05/26 07:42:18;;;;;;;10.30;5.85;;;;;;;20.94;58.03;98970.11;2167867;81;21016;-81
2022/05/26 07:45:18;;;;;;;9.78;6.17;;;;;;;21.33;55.05;98971.23;2169524;80;20972;-79
2022/05/26 07:48:18;;;;;;;18.90;7.22;;;;;;;21.58;55.36;98972.23;2168343;82;21332;-80
2022/05/26 07:51:20;;;;;;;7.72;5.00;;;;;;;21.83;53.60;98978.15;2167894;82;20964;-81
2022/05/26 07:54:19;;;;;;;5.65;4.15;;;;;;;21.92;53.72;98983.17;2169058;82;21041;-80
2022/05/26 07:57:20;;;;;;;7.10;5.50;;;;;;;22.00;51.64;98983.80;2167819;82;21420;-81
2022/05/26 08:00:20;;;;;;;7.62;4.42;;;;;;;22.08;53.66;98980.92;2166909;82;21411;-80
2022/05/26 08:06:47;;;;;;;12.10;4.22;;;;;;;22.33;52.86;98976.53;2317259;76;23416;-80
2022/05/26 08:09:48;;;;;;;5.92;3.17;;;;;;;22.33;50.99;98975.20;2313776;77;20984;-79
2022/05/26 08:12:48;;;;;;;8.53;3.20;;;;;;;22.30;49.29;98966.46;2314283;77;20968;-78
2022/05/26 08:15:49;;;;;;;5.75;3.20;;;;;;;22.40;49.55;98973.20;2311276;77;20952;-78
2022/05/26 08:18:49;;;;;;;6.90;3.37;;;;;;;22.46;49.80;98979.65;2311571;77;20976;-80
2022/05/26 08:21:49;;;;;;;4.78;3.50;;;;;;;22.58;49.51;98987.24;2312991;77;21345;-79
2022/05/26 08:24:50;;;;;;;3.30;2.75;;;;;;;22.48;47.10;98984.45;2314211;77;20944;-80
2022/05/26 08:27:50;;;;;;;5.00;2.77;;;;;;;22.20;47.95;98986.71;2314132;77;20980;-80
2022/05/26 08:30:53;;;;;;;20.95;4.37;;;;;;;22.21;47.44;98981.80;2313939;77;21058;-79
2022/05/26 08:33:53;;;;;;;3.70;2.75;;;;;;;22.29;48.82;98984.20;2313832;77;20980;-80
2022/05/26 08:36:56;;;;;;;4.80;3.12;;;;;;;22.36;46.32;98983.54;2313010;77;21039;-78
2022/05/26 08:39:57;;;;;;;5.75;2.70;;;;;;;22.44;46.00;98989.47;2313134;77;20979;-79
2022/05/26 08:42:57;;;;;;;3.65;2.75;;;;;;;22.63;47.93;98985.30;2314252;77;20952;-80
2022/05/26 08:45:57;;;;;;;3.55;2.92;;;;;;;22.84;46.28;98979.25;2315593;77;21367;-81
2022/05/26 08:49:00;;;;;;;8.13;2.75;;;;;;;22.74;46.42;98984.92;2312259;77;20988;-80
2022/05/26 08:52:00;;;;;;;5.08;2.85;;;;;;;22.84;45.50;98981.04;2314838;77;21622;-79
2022/05/26 08:55:01;;;;;;;10.60;3.15;;;;;;;22.82;47.00;98981.09;2313886;77;21915;-80
2022/05/26 08:58:04;;;;;;;3.83;2.58;;;;;;;22.93;46.23;98979.37;2313425;77;20948;-81
2022/05/26 09:01:01;;;;;;;3.30;2.20;;;;;;;22.92;44.31;98976.77;2314202;77;21016;-79
2022/05/26 09:04:02;;;;;;;7.17;2.50;;;;;;;23.09;43.46;98991.67;2314043;77;21372;-79
2022/05/26 09:13:41;;;;;;;11.38;2.40;;;;;;;22.85;43.04;98980.98;2319217;77;20944;-81
2022/05/26 09:16:40;;;;;;;9.58;6.42;;;;;;;23.05;41.50;98984.72;2318378;77;21431;-78
2022/05/26 09:19:41;;;;;;;2.87;1.85;;;;;;;22.90;41.01;98990.59;2315793;77;21215;-80
2022/05/26 09:22:41;;;;;;;3.27;1.62;;;;;;;22.83;38.76;98982.84;2316917;77;20987;-80
2022/05/26 09:25:41;;;;;;;17.07;3.05;;;;;;;22.92;40.04;98982.09;2316345;77;20980;-82
2022/05/26 09:28:43;;;;;;;2.20;1.65;;;;;;;22.98;41.15;98976.55;2317941;77;20984;-80
2022/05/26 09:31:42;;;;;;;2.87;1.52;;;;;;;23.10;40.82;98975.64;2317418;77;20940;-80
2022/05/26 09:34:45;;;;;;;10.68;1.90;;;;;;;23.27;41.15;98978.14;2316679;77;21059;-79
2022/05/26 09:37:45;;;;;;;5.20;1.90;;;;;;;23.61;40.68;98975.13;2315891;77;20917;-79
2022/05/26 09:40:48;;;;;;;3.75;1.62;;;;;;;23.50;40.12;98983.03;2316839;77;21391;-79
2022/05/26 09:43:49;;;;;;;8.90;1.90;;;;;;;23.67;38.06;98978.42;2316027;77;20995;-81
2022/05/26 09:46:49;;;;;;;7.37;2.00;;;;;;;23.85;38.71;98970.16;2317713;77;20991;-80
2022/05/26 09:49:50;;;;;;;29.35;2.83;;;;;;;24.25;37.40;98968.53;2317853;77;20940;-80
2022/05/26 09:52:53;;;;;;;5.58;2.35;;;;;;;24.07;38.34;98973.70;2317990;77;21028;-80
2022/05/26 09:55:55;;;;;;;2.47;1.60;;;;;;;24.41;38.36;98975.89;2317967;77;20980;-79
2022/05/26 09:58:54;;;;;;;2.67;1.40;;;;;;;24.38;36.26;98976.49;2318479;77;20953;-80
2022/05/26 10:01:54;;;;;;;2.83;1.47;;;;;;;24.32;35.66;98979.41;2318869;77;21928;-81
2022/05/26 10:04:54;;;;;;;3.72;1.47;;;;;;;24.13;35.97;98972.58;2316736;77;21028;-81
2022/05/26 10:07:55;;;;;;;9.58;1.52;;;;;;;23.97;36.34;98978.13;2314375;77;20988;-80
2022/05/26 10:10:55;;;;;;;10.32;1.77;;;;;;;24.28;37.54;98965.34;2314707;77;20987;-83
2022/05/26 10:13:56;;;;;;;7.22;1.70;;;;;;;24.36;37.49;98965.89;2313886;77;20956;-81
2022/05/26 10:16:56;;;;;;;30.55;27.25;;;;;;;24.16;34.61;98972.45;2313523;77;20975;-81
2022/05/26 10:19:56;;;;;;;4.00;1.80;;;;;;;23.44;36.57;98976.61;2313846;77;20973;-81
2022/05/26 10:22:57;;;;;;;3.50;1.70;;;;;;;23.01;37.28;98979.97;2313693;77;21019;-82
2022/05/26 10:25:57;;;;;;;4.05;1.95;;;;;;;22.67;38.03;98973.63;2313867;77;21011;-83
2022/05/26 10:28:58;;;;;;;2.15;1.60;;;;;;;22.65;39.81;98962.16;2314487;77;20992;-80
2022/05/26 10:31:58;;;;;;;4.90;1.37;;;;;;;22.82;38.79;98966.92;2314345;77;20952;-81
2022/05/26 10:34:58;;;;;;;3.02;1.57;;;;;;;22.92;39.43;98955.02;2315110;77;21067;-80
2022/05/26 10:37:59;;;;;;;4.42;1.80;;;;;;;22.90;37.88;98951.55;2315104;77;20909;-81
2022/05/26 10:40:59;;;;;;;4.03;1.55;;;;;;;23.03;38.87;98962.61;2315354;77;20913;-80
2022/05/26 10:44:00;;;;;;;3.15;1.70;;;;;;;23.24;37.43;98956.48;2314603;77;21035;-79
2022/05/26 10:47:01;;;;;;;2.33;1.60;;;;;;;23.72;37.81;98950.25;2314640;77;20941;-80
2022/05/26 10:50:01;;;;;;;22.82;2.25;;;;;;;23.86;36.32;98961.23;2315911;77;20893;-79
2022/05/26 10:53:02;;;;;;;7.58;1.40;;;;;;;23.74;37.92;98960.39;2315767;77;20983;-82
2022/05/26 10:56:02;;;;;;;5.55;1.50;;;;;;;23.67;36.13;98953.56;2314418;77;21036;-81
2022/05/26 10:59:03;;;;;;;6.65;1.80;;;;;;;23.58;36.13;98957.92;2314387;77;20960;-80
2022/05/26 11:02:03;;;;;;;4.67;1.52;;;;;;;23.61;37.98;98956.01;2314302;77;21242;-82
2022/05/26 11:05:03;;;;;;;5.50;1.42;;;;;;;23.90;36.63;98956.65;2314927;77;21039;-82
2022/05/26 11:08:03;;;;;;;4.90;1.32;;;;;;;24.02;37.18;98957.48;2319091;77;20964;-82
2022/05/26 11:11:04;;;;;;;1.82;1.20;;;;;;;23.93;34.85;98953.39;2318731;77;21381;-79
2022/05/26 11:14:04;;;;;;;1.87;1.20;;;;;;;23.83;36.49;98955.56;2318377;77;21111;-79
2022/05/26 11:17:23;;;;;;;4.62;1.60;;;;;;;24.00;36.86;98948.68;2319493;77;20921;-81
2022/05/26 11:20:23;;;;;;;4.08;1.20;;;;;;;24.12;36.53;98945.05;2318715;77;20928;-81
2022/05/26 11:23:23;;;;;;;3.17;1.12;;;;;;;24.20;36.42;98944.72;2318521;77;20940;-80
2022/05/26 11:26:24;;;;;;;3.30;1.40;;;;;;;24.41;36.74;98942.55;2317690;77;21361;-80
2022/05/26 11:29:24;;;;;;;3.50;1.80;;;;;;;24.64;35.03;98932.22;2317383;77;20987;-78
2022/05/26 11:39:03;;;;;;;2.60;1.47;;;;;;;24.62;34.40;98937.22;2318539;77;21026;-82
2022/05/26 11:42:03;;;;;;;4.75;1.47;;;;;;;24.15;34.90;98950.25;2318348;77;20976;-81
2022/05/26 11:45:04;;;;;;;12.70;1.60;;;;;;;23.86;35.17;98937.24;2317653;77;21070;-81
2022/05/26 11:48:04;;;;;;;4.72;1.22;;;;;;;23.91;35.63;98930.39;2318314;77;21399;-80
2022/05/26 11:51:04;;;;;;;8.13;1.40;;;;;;;24.23;34.18;98939.72;2318337;77;20912;-81
2022/05/26 11:54:05;;;;;;;3.92;1.62;;;;;;;24.55;33.75;98934.41;2318288;77;20913;-81
2022/05/26 11:57:05;;;;;;;1.98;1.42;;;;;;;24.62;33.09;98943.89;2318344;77;21039;-80
2022/05/26 12:00:06;;;;;;;15.00;2.50;;;;;;;24.44;33.41;98935.75;2319039;77;20980;-81
2022/05/26 12:03:06;;;;;;;5.03;1.27;;;;;;;24.50;33.76;98932.41;2318365;77;20956;-80
2022/05/26 12:06:06;;;;;;;14.30;2.98;;;;;;;24.36;33.95;98935.20;2316598;77;21019;-82
2022/05/26 12:09:07;;;;;;;6.22;1.90;;;;;;;24.23;33.65;98935.73;2313731;77;20952;-82
2022/05/26 12:12:07;;;;;;;5.70;1.50;;;;;;;24.19;33.19;98931.45;2314164;77;20991;-81
2022/05/26 12:15:09;;;;;;;5.10;1.50;;;;;;;24.23;34.05;98933.05;2314048;77;20980;-81
2022/05/26 12:18:09;;;;;;;13.65;2.17;;;;;;;24.03;33.74;98932.55;2314029;77;20976;-82
2022/05/26 12:21:08;;;;;;;4.72;1.50;;;;;;;23.57;34.77;98925.55;2313641;77;21033;-82
2022/05/26 12:24:09;;;;;;;7.05;1.85;;;;;;;23.51;35.10;98919.50;2312853;77;20985;-82
2022/05/26 12:27:09;;;;;;;10.18;1.55;;;;;;;23.92;35.32;98922.33;2313255;77;20976;-82
2022/05/26 12:30:10;;;;;;;6.17;1.40;;;;;;;24.18;34.95;98917.25;2313880;77;20972;-80
2022/05/26 12:33:10;;;;;;;2.60;1.30;;;;;;;23.94;35.13;98919.60;2313813;77;21491;-82
2022/05/26 12:36:10;;;;;;;3.65;1.27;;;;;;;23.56;35.39;98918.48;2314146;77;21035;-83
2022/05/26 12:39:14;;;;;;;7.25;1.32;;;;;;;23.27;35.52;98922.22;2314481;77;21043;-83
2022/05/26 12:42:11;;;;;;;1.30;1.10;;;;;;;23.19;36.41;98929.16;2314469;77;20948;-84
2022/05/26 12:45:12;;;;;;;4.58;1.27;;;;;;;23.22;36.13;98929.05;2314285;77;20992;-82
2022/05/26 12:48:12;;;;;;;7.80;1.50;;;;;;;23.43;35.91;98921.59;2313499;77;21408;-83
2022/05/26 12:51:13;;;;;;;12.70;4.05;;;;;;;23.54;36.31;98917.18;2313315;77;20945;-76
2022/05/26 12:54:13;;;;;;;12.98;2.58;;;;;;;23.46;35.44;98910.82;2311527;77;21023;-77
2022/05/26 12:57:14;;;;;;;8.33;2.77;;;;;;;23.13;36.46;98926.73;2313723;77;21694;-78
2022/05/26 13:00:14;;;;;;;25.45;2.85;;;;;;;22.94;36.54;98919.90;2310854;77;21475;-83
2022/05/26 13:03:14;;;;;;;9.23;2.40;;;;;;;22.69;37.14;98927.88;2314810;77;20959;-83
2022/05/26 13:06:15;;;;;;;6.17;1.65;;;;;;;23.32;36.77;98923.78;2315736;77;21466;-83
2022/05/26 13:09:18;;;;;;;30.80;4.10;;;;;;;23.88;35.58;98914.06;2318559;77;21068;-83
2022/05/26 13:12:17;;;;;;;9.45;1.65;;;;;;;23.91;35.89;98913.93;2286944;77;21032;-82
2022/05/26 13:15:18;;;;;;;7.42;1.60;;;;;;;23.66;34.21;98924.72;2318948;77;20964;-82
2022/05/26 13:18:18;;;;;;;4.40;1.20;;;;;;;23.51;36.23;98914.64;2318455;77;21021;-82
2022/05/26 13:21:18;;;;;;;5.72;1.75;;;;;;;23.57;36.36;98924.22;2318279;77;20964;-82
2022/05/26 13:24:19;;;;;;;2.20;1.12;;;;;;;23.39;35.74;98918.61;2318733;77;20984;-82
2022/05/26 13:27:19;;;;;;;7.80;1.82;;;;;;;23.14;35.83;98924.02;2318442;77;20980;-83
2022/05/26 13:33:39;;;;;;;6.17;1.90;;;;;;;22.83;36.47;98916.30;2318114;77;21000;-83
2022/05/26 13:36:39;;;;;;;3.12;1.65;;;;;;;22.79;38.14;98922.62;2318065;77;20999;-81
2022/05/26 13:39:39;;;;;;;12.10;1.90;;;;;;;22.66;38.14;98925.32;2320054;77;20944;-84
2022/05/26 13:42:40;;;;;;;4.45;1.25;;;;;;;22.66;38.47;98925.78;2319290;77;20991;-82
2022/05/26 13:45:40;;;;;;;3.17;1.40;;;;;;;22.54;38.64;98919.08;2319710;77;21032;-83
2022/05/26 13:48:42;;;;;;;6.95;1.95;;;;;;;22.81;38.53;98918.15;2320616;77;20956;-82
2022/05/26 13:51:41;;;;;;;2.10;1.42;;;;;;;23.33;37.61;98916.66;2318735;77;20944;-77
2022/05/26 13:54:43;;;;;;;16.93;2.05;;;;;;;23.51;37.29;98915.50;2318126;77;21004;-83
2022/05/26 13:57:42;;;;;;;3.70;1.35;;;;;;;23.57;37.93;98914.42;2319724;77;21006;-82
2022/05/26 14:00:42;;;;;;;1.27;1.15;;;;;;;23.88;36.50;98911.39;2320064;77;21910;-83
2022/05/26 14:03:43;;;;;;;2.80;1.20;;;;;;;23.84;36.61;98907.12;2320799;77;21011;-83
2022/05/26 14:06:43;;;;;;;10.93;1.75;;;;;;;23.57;36.68;98911.77;2317269;77;21055;-83
2022/05/26 14:09:43;;;;;;;3.85;1.50;;;;;;;23.54;37.18;98925.64;2316222;77;20925;-83
2022/05/26 14:12:44;;;;;;;6.62;1.40;;;;;;;23.25;37.08;98934.26;2316391;77;20975;-81
2022/05/26 14:15:44;;;;;;;1.67;1.20;;;;;;;23.19;37.96;98919.84;2318240;77;20913;-81
2022/05/26 14:18:45;;;;;;;2.05;1.20;;;;;;;23.15;38.08;98919.09;2317355;77;20976;-82
2022/05/26 14:21:45;;;;;;;5.47;1.52;;;;;;;23.12;38.89;98927.20;2316960;77;21375;-83
2022/05/26 14:24:53;;;;;;;3.72;1.40;;;;;;;23.60;38.22;98918.77;2317014;77;21016;-83
2022/05/26 14:27:51;;;;;;;;;;;;;;;23.92;38.37;98914.80;2320525;77;20960;-83
2022/05/26 14:30:51;;;;;;;6.78;1.30;;;;;;;23.73;37.98;98928.00;2318206;77;20124;-83
2022/05/26 14:33:52;;;;;;;6.40;1.47;;;;;;;23.10;37.64;98921.52;2317889;77;20995;-81
2022/05/26 14:36:52;;;;;;;4.72;1.57;;;;;;;22.71;38.68;98910.52;2316822;77;21406;-84
2022/05/26 14:39:53;;;;;;;4.47;1.75;;;;;;;22.56;39.82;98919.46;2317621;77;20988;-82
2022/05/26 14:42:53;;;;;;;4.87;1.45;;;;;;;22.35;40.38;98920.64;2316940;77;20984;-82
2022/05/26 14:45:53;;;;;;;3.70;1.40;;;;;;;22.68;40.21;98922.14;2316887;77;21044;-81
2022/05/26 14:48:54;;;;;;;3.22;1.57;;;;;;;22.96;39.03;98915.39;2316548;77;20945;-83